Time;durP1;ratioP1;P1;durP2;ratioP2;P2;SDS_P1;SDS_P2;PMS_P1;PMS_P2;Temp;Humidity;BMP_temperature;BMP_pressure;BME280_temperature;BME280_humidity;BME280_pressure;Samples;Min_cycle;Max_cycle;Signal;HPM_P1;HPM_P2
2021/05/04 00:00:53;;;;;;;3.95;2.28;;;10.80;73.70;;;;;;5027758;28;20069;-74
2021/05/04 00:03:18;;;;;;;3.60;2.35;;;10.90;73.80;;;;;;5028003;28;20119;-74
2021/05/04 00:05:44;;;;;;;4.78;2.28;;;10.90;73.90;;;;;;5028888;28;20025;-75
2021/05/04 00:08:09;;;;;;;4.90;2.33;;;10.90;73.30;;;;;;5030738;28;20029;-75
2021/05/04 00:10:35;;;;;;;4.75;2.67;;;10.90;72.90;;;;;;5027738;28;20451;-75
2021/05/04 00:13:01;;;;;;;4.68;2.38;;;10.90;72.60;;;;;;5027696;28;20503;-73
2021/05/04 00:15:26;;;;;;;7.10;2.28;;;11.00;72.40;;;;;;5028480;28;20046;-73
2021/05/04 00:17:52;;;;;;;4.65;2.58;;;11.00;72.50;;;;;;5023789;28;20057;-73
2021/05/04 00:20:17;;;;;;;4.85;2.88;;;11.00;72.20;;;;;;5008883;28;20026;-74
2021/05/04 00:22:43;;;;;;;6.15;2.50;;;11.10;72.10;;;;;;5010604;28;20026;-75
2021/05/04 00:25:09;;;;;;;4.60;2.53;;;11.10;71.80;;;;;;5023716;28;20037;-74
2021/05/04 00:27:35;;;;;;;4.75;2.67;;;11.10;72.10;;;;;;5027415;28;20033;-74
2021/05/04 00:30:00;;;;;;;5.50;2.80;;;11.10;71.50;;;;;;5029289;28;20037;-75
2021/05/04 00:32:26;;;;;;;4.63;2.65;;;11.10;71.20;;;;;;5031946;28;20037;-74
2021/05/04 00:34:52;;;;;;;7.88;3.00;;;11.10;71.40;;;;;;5032759;28;20052;-74
2021/05/04 00:37:18;;;;;;;4.78;2.40;;;11.10;71.40;;;;;;5032277;28;20549;-74
2021/05/04 00:39:44;;;;;;;6.75;2.70;;;11.20;71.70;;;;;;5031905;28;20037;-74
2021/05/04 00:42:09;;;;;;;6.00;2.83;;;11.20;71.50;;;;;;5032322;28;20459;-74
2021/05/04 00:44:35;;;;;;;5.25;2.90;;;11.20;71.50;;;;;;5031026;28;20126;-75
2021/05/04 00:47:00;;;;;;;7.05;3.10;;;11.20;71.60;;;;;;5033491;28;20022;-75
2021/05/04 00:49:26;;;;;;;3.40;2.60;;;11.20;71.60;;;;;;5031808;28;20382;-74
2021/05/04 00:51:55;;;;;;;5.22;2.47;;;11.20;71.50;;;;;;5032017;28;20041;-73
2021/05/04 00:54:22;;;;;;;4.78;2.70;;;11.20;71.60;;;;;;5032073;28;20117;-74
2021/05/04 00:56:48;;;;;;;5.47;2.95;;;11.30;72.00;;;;;;5031943;28;20049;-74
2021/05/04 00:59:18;;;;;;;6.38;3.15;;;11.30;71.80;;;;;;5032523;28;20036;-74
2021/05/04 01:01:43;;;;;;;4.35;3.05;;;11.30;71.80;;;;;;5032086;28;20052;-74
2021/05/04 01:04:09;;;;;;;6.13;2.78;;;11.30;71.70;;;;;;5030736;28;20033;-74
2021/05/04 01:06:35;;;;;;;4.00;2.90;;;11.30;71.70;;;;;;5031926;28;20463;-73
2021/05/04 01:09:00;;;;;;;3.25;2.20;;;11.30;71.70;;;;;;5031585;28;20091;-74
2021/05/04 01:11:26;;;;;;;6.10;2.50;;;11.30;71.70;;;;;;5031541;28;20352;-73
2021/05/04 01:13:55;;;;;;;4.22;2.42;;;11.40;71.50;;;;;;5033147;28;20359;-73
2021/05/04 01:16:21;;;;;;;3.85;2.60;;;11.40;71.40;;;;;;5031774;28;20034;-74
2021/05/04 01:18:47;;;;;;;6.50;3.03;;;11.40;71.30;;;;;;5031319;28;20033;-73
2021/05/04 01:21:12;;;;;;;5.53;2.97;;;11.40;71.10;;;;;;5031427;28;20029;-73
2021/05/04 01:23:38;;;;;;;7.10;3.00;;;11.40;71.00;;;;;;5031643;28;20061;-75
2021/05/04 01:26:04;;;;;;;7.82;3.10;;;11.40;71.10;;;;;;5032888;28;20036;-74
2021/05/04 01:28:32;;;;;;;6.43;2.53;;;11.40;71.10;;;;;;5031178;28;20060;-75
2021/05/04 01:30:57;;;;;;;5.75;3.35;;;11.40;71.00;;;;;;5031310;28;20132;-75
2021/05/04 01:33:23;;;;;;;6.70;3.03;;;11.40;71.10;;;;;;5031417;28;20180;-75
2021/05/04 01:35:49;;;;;;;4.93;2.92;;;11.40;70.90;;;;;;5031018;28;20107;-75
2021/05/04 01:38:15;;;;;;;5.53;2.97;;;11.50;70.90;;;;;;5032464;28;20044;-75
2021/05/04 01:40:42;;;;;;;4.53;2.50;;;11.50;70.60;;;;;;5029643;28;20040;-75
2021/05/04 01:43:08;;;;;;;7.13;2.75;;;11.50;70.50;;;;;;5031225;28;20107;-75
2021/05/04 01:45:33;;;;;;;5.90;3.25;;;11.50;70.60;;;;;;5030943;28;20045;-76
2021/05/04 01:47:59;;;;;;;3.70;2.78;;;11.50;70.20;;;;;;5031166;28;20045;-74
2021/05/04 01:50:25;;;;;;;6.65;3.00;;;11.60;70.40;;;;;;5031439;28;20033;-74
2021/05/04 01:52:51;;;;;;;5.20;3.00;;;11.60;70.20;;;;;;5032458;28;20423;-75
2021/05/04 01:55:16;;;;;;;4.05;3.00;;;11.50;69.70;;;;;;5030804;28;20041;-75
2021/05/04 01:57:42;;;;;;;5.28;3.40;;;11.50;69.60;;;;;;5031011;28;20034;-74
2021/05/04 02:00:10;;;;;;;7.07;3.42;;;11.60;69.60;;;;;;5031274;28;20041;-74
2021/05/04 02:02:36;;;;;;;8.32;3.47;;;11.60;69.70;;;;;;5030858;28;20850;-74
2021/05/04 02:05:04;;;;;;;8.98;3.35;;;11.60;69.20;;;;;;5031171;28;20045;-74
2021/05/04 02:07:30;;;;;;;5.85;3.40;;;11.60;69.20;;;;;;5030606;28;20052;-74
2021/05/04 02:09:56;;;;;;;9.70;3.40;;;11.60;69.30;;;;;;5030468;28;20033;-74
2021/05/04 02:12:22;;;;;;;7.25;3.55;;;11.60;69.20;;;;;;5030282;28;20635;-74
2021/05/04 02:14:49;;;;;;;6.53;3.58;;;11.60;69.10;;;;;;5030387;28;20053;-75
2021/05/04 02:17:14;;;;;;;5.95;3.03;;;11.70;69.00;;;;;;5031859;28;20465;-74
2021/05/04 02:19:40;;;;;;;6.28;3.38;;;11.70;68.90;;;;;;5029784;28;20280;-74
2021/05/04 02:22:06;;;;;;;4.40;3.28;;;11.70;68.90;;;;;;5030562;28;20139;-74
2021/05/04 02:24:31;;;;;;;9.88;3.42;;;11.70;68.70;;;;;;5030194;28;20041;-74
2021/05/04 02:26:57;;;;;;;8.38;2.90;;;11.70;68.50;;;;;;5030174;28;20117;-74
2021/05/04 02:29:22;;;;;;;8.27;3.53;;;11.70;68.40;;;;;;5029736;28;20061;-75
2021/05/04 02:31:48;;;;;;;5.53;3.05;;;11.80;68.40;;;;;;5031793;28;20120;-74
2021/05/04 02:34:14;;;;;;;10.45;2.72;;;11.80;68.50;;;;;;5030048;28;20046;-74
2021/05/04 02:36:40;;;;;;;8.63;3.00;;;11.80;68.10;;;;;;5030020;28;20069;-74
2021/05/04 02:39:08;;;;;;;5.93;3.10;;;11.80;68.10;;;;;;5029062;28;20063;-74
2021/05/04 02:41:34;;;;;;;5.43;3.20;;;11.80;68.10;;;;;;5029868;28;20017;-74
2021/05/04 02:44:04;;;;;;;4.75;3.10;;;11.80;68.60;;;;;;5031159;28;20511;-73
2021/05/04 02:46:30;;;;;;;6.07;3.38;;;11.80;68.00;;;;;;5029713;28;20037;-73
2021/05/04 02:48:57;;;;;;;4.43;3.03;;;11.90;68.10;;;;;;5029850;28;20467;-74
2021/05/04 02:51:23;;;;;;;8.23;3.15;;;11.90;68.20;;;;;;5029769;28;20060;-74
2021/05/04 02:53:49;;;;;;;6.88;3.33;;;11.90;68.00;;;;;;5029079;28;20122;-74
2021/05/04 02:56:15;;;;;;;6.15;3.60;;;11.90;67.90;;;;;;5031063;28;20068;-73
2021/05/04 02:58:40;;;;;;;4.15;2.90;;;11.90;67.90;;;;;;5029955;28;20125;-74
2021/05/04 03:01:06;;;;;;;6.20;3.80;;;11.90;67.90;;;;;;5029566;28;20447;-74
2021/05/04 03:03:35;;;;;;;4.90;3.03;;;11.90;67.70;;;;;;5029714;28;20033;-74
2021/05/04 03:06:03;;;;;;;5.97;3.50;;;11.90;67.60;;;;;;5029208;28;20053;-74
2021/05/04 03:08:29;;;;;;;6.95;3.08;;;11.90;67.60;;;;;;5029501;28;20111;-74
2021/05/04 03:10:55;;;;;;;8.43;3.72;;;11.90;67.40;;;;;;5030976;28;20021;-75
2021/05/04 03:13:29;;;;;;;7.95;3.45;;;12.00;67.50;;;;;;5029531;28;20087;-74
2021/05/04 03:15:55;;;;;;;8.30;3.65;;;11.90;67.40;;;;;;5029259;28;20045;-74
2021/05/04 03:18:21;;;;;;;8.20;3.67;;;12.00;67.30;;;;;;5028462;28;20029;-74
2021/05/04 03:20:51;;;;;;;5.80;3.05;;;12.00;67.20;;;;;;5029413;28;20117;-74
2021/05/04 03:23:19;;;;;;;7.75;3.45;;;12.00;67.00;;;;;;5028327;28;20079;-74
2021/05/04 03:25:45;;;;;;;6.60;3.50;;;12.00;67.00;;;;;;5030097;28;20028;-74
2021/05/04 03:28:11;;;;;;;9.02;3.45;;;12.00;67.00;;;;;;5028964;28;20084;-73
2021/05/04 03:30:37;;;;;;;5.65;3.30;;;12.10;66.90;;;;;;5029483;28;20057;-75
2021/05/04 03:33:03;;;;;;;8.75;3.58;;;12.10;66.80;;;;;;5029143;28;20111;-75
2021/05/04 03:35:29;;;;;;;8.98;3.58;;;12.10;66.90;;;;;;5029201;28;20072;-74
2021/05/04 03:37:55;;;;;;;7.05;3.28;;;12.10;66.90;;;;;;5030764;28;20041;-74
2021/05/04 03:40:21;;;;;;;7.80;3.75;;;12.10;66.70;;;;;;5029272;28;20057;-74
2021/05/04 03:42:46;;;;;;;9.57;3.63;;;12.10;66.60;;;;;;5029082;28;20136;-74
2021/05/04 03:45:12;;;;;;;6.80;2.90;;;12.10;66.80;;;;;;5029357;28;20033;-74
2021/05/04 03:47:42;;;;;;;7.30;4.05;;;12.10;66.80;;;;;;5027858;28;20041;-74
2021/05/04 03:50:12;;;;;;;8.73;3.72;;;12.10;66.90;;;;;;5029901;28;20021;-74
2021/05/04 03:52:38;;;;;;;9.40;3.78;;;12.10;66.80;;;;;;5028892;28;20048;-73
2021/05/04 03:55:05;;;;;;;4.93;2.90;;;12.20;66.90;;;;;;5028670;28;20466;-74
2021/05/04 03:57:31;;;;;;;8.60;3.67;;;12.20;67.10;;;;;;5029020;28;20387;-73
2021/05/04 03:59:57;;;;;;;4.07;2.88;;;12.20;67.10;;;;;;5029227;28;20030;-74
2021/05/04 04:02:23;;;;;;;6.68;3.58;;;12.10;66.90;;;;;;5029097;28;20459;-74
2021/05/04 04:04:49;;;;;;;6.80;3.45;;;12.20;67.00;;;;;;5033628;28;20036;-74
2021/05/04 04:07:14;;;;;;;8.88;3.38;;;12.30;67.00;;;;;;5032887;28;20041;-74
2021/05/04 04:09:40;;;;;;;5.72;2.78;;;12.30;66.90;;;;;;5032923;28;20087;-75
2021/05/04 04:12:06;;;;;;;6.75;2.45;;;12.40;66.20;;;;;;5032763;28;20041;-74
2021/05/04 04:14:31;;;;;;;10.95;2.97;;;12.50;66.00;;;;;;5031649;28;20037;-73
2021/05/04 04:16:57;;;;;;;4.82;3.08;;;12.50;66.40;;;;;;5034284;28;20036;-74
2021/05/04 04:19:22;;;;;;;9.68;2.92;;;12.50;67.40;;;;;;5032953;28;20034;-73
2021/05/04 04:21:49;;;;;;;8.65;2.97;;;12.50;67.40;;;;;;5032637;28;20380;-73
2021/05/04 04:24:16;;;;;;;8.90;2.65;;;12.50;67.70;;;;;;5032252;28;20091;-74
2021/05/04 04:26:41;;;;;;;4.40;3.00;;;12.50;68.30;;;;;;5032405;28;20040;-74
2021/05/04 04:29:07;;;;;;;3.40;1.90;;;12.50;68.90;;;;;;5033738;28;20050;-75
2021/05/04 04:31:33;;;;;;;3.72;2.05;;;12.50;69.50;;;;;;5031413;28;20364;-75
2021/05/04 04:33:59;;;;;;;5.28;2.70;;;12.50;70.30;;;;;;5032067;28;20044;-74
2021/05/04 04:36:25;;;;;;;3.67;2.30;;;12.40;70.40;;;;;;5031916;28;20037;-74
2021/05/04 04:38:50;;;;;;;7.28;2.20;;;12.50;70.70;;;;;;5031996;28;20042;-74
2021/05/04 04:41:16;;;;;;;4.50;2.45;;;12.40;70.60;;;;;;5032105;28;20097;-73
2021/05/04 04:43:41;;;;;;;7.72;2.58;;;12.40;70.70;;;;;;5033903;28;20021;-74
2021/05/04 04:46:07;;;;;;;3.38;2.08;;;12.40;70.70;;;;;;5032174;28;20052;-74
2021/05/04 04:48:33;;;;;;;3.38;1.90;;;12.40;70.90;;;;;;5030887;28;20037;-74
2021/05/04 04:50:58;;;;;;;5.78;1.95;;;12.50;71.00;;;;;;5032104;28;20037;-74
2021/05/04 04:53:24;;;;;;;2.90;1.80;;;12.30;71.90;;;;;;5031965;28;20603;-73
2021/05/04 04:55:51;;;;;;;12.30;1.98;;;12.30;71.60;;;;;;5033288;28;20021;-75
2021/05/04 04:58:17;;;;;;;9.80;1.80;;;12.30;71.70;;;;;;5031959;28;20033;-74
2021/05/04 05:00:42;;;;;;;2.63;1.83;;;12.20;73.30;;;;;;5031760;28;20121;-75
2021/05/04 05:03:08;;;;;;;3.35;1.70;;;12.20;73.80;;;;;;5031875;28;20069;-73
2021/05/04 05:05:34;;;;;;;3.45;2.17;;;12.20;75.00;;;;;;5031486;28;20108;-73
2021/05/04 05:07:59;;;;;;;7.95;1.85;;;12.20;76.00;;;;;;5032053;28;20025;-73
2021/05/04 05:10:25;;;;;;;3.78;1.90;;;12.20;76.40;;;;;;5031832;28;20041;-74
2021/05/04 05:12:51;;;;;;;6.25;2.05;;;12.10;77.00;;;;;;5031424;28;20037;-74
2021/05/04 05:15:16;;;;;;;4.28;1.83;;;12.10;77.30;;;;;;5030682;28;20074;-75
2021/05/04 05:17:42;;;;;;;3.97;1.95;;;12.10;77.50;;;;;;5031218;28;20469;-74
2021/05/04 05:20:08;;;;;;;4.78;2.08;;;12.10;77.60;;;;;;5032744;28;20056;-75
2021/05/04 05:22:34;;;;;;;4.38;1.90;;;12.10;77.90;;;;;;5031337;28;20494;-73
2021/05/04 05:25:00;;;;;;;4.22;2.00;;;12.10;78.20;;;;;;5031133;28;20034;-74
2021/05/04 05:27:27;;;;;;;3.72;2.38;;;12.10;78.80;;;;;;5030011;28;20037;-74
2021/05/04 05:29:53;;;;;;;5.68;2.28;;;12.00;80.00;;;;;;5030868;28;20056;-74
2021/05/04 05:32:21;;;;;;;6.03;2.08;;;12.00;80.70;;;;;;5031091;28;20416;-74
2021/05/04 05:34:49;;;;;;;3.75;2.10;;;12.00;81.20;;;;;;5032428;28;20095;-74
2021/05/04 05:37:15;;;;;;;;;;;11.90;81.60;;;;;;5031300;28;20029;-74
2021/05/04 05:39:43;;;;;;;4.07;1.95;;;11.80;82.50;;;;;;5030963;28;19909;-74
2021/05/04 05:42:15;;;;;;;7.60;2.42;;;11.90;83.20;;;;;;5031132;28;20041;-73
2021/05/04 05:44:41;;;;;;;4.80;2.20;;;11.80;83.90;;;;;;5030743;28;20033;-74
2021/05/04 05:47:07;;;;;;;5.22;2.30;;;11.80;85.00;;;;;;5032685;28;20027;-73
2021/05/04 05:49:32;;;;;;;3.63;2.17;;;11.80;86.00;;;;;;5030834;28;20045;-73
2021/05/04 05:51:58;;;;;;;3.63;2.42;;;11.70;86.50;;;;;;5029756;28;20045;-75
2021/05/04 05:54:24;;;;;;;4.65;2.15;;;11.60;88.30;;;;;;5029643;28;20509;-75
2021/05/04 05:56:50;;;;;;;6.03;2.75;;;11.70;88.70;;;;;;5030644;28;20041;-74
2021/05/04 05:59:16;;;;;;;4.47;2.50;;;11.70;89.30;;;;;;5030433;28;20021;-74
2021/05/04 06:01:42;;;;;;;6.03;2.35;;;11.70;90.20;;;;;;5032504;28;20117;-74
2021/05/04 06:04:08;;;;;;;8.32;2.30;;;11.60;90.40;;;;;;5030522;28;20613;-74
2021/05/04 06:06:33;;;;;;;6.10;2.92;;;11.60;90.60;;;;;;5030627;28;20105;-74
2021/05/04 06:08:59;;;;;;;8.63;2.15;;;11.60;91.50;;;;;;5030177;28;20492;-74
2021/05/04 06:11:24;;;;;;;6.68;2.60;;;11.60;91.60;;;;;;5029121;28;20447;-74
2021/05/04 06:13:50;;;;;;;4.40;2.05;;;11.50;91.80;;;;;;5031774;28;20100;-74
2021/05/04 06:16:16;;;;;;;5.32;1.90;;;11.50;91.90;;;;;;5030110;28;20060;-74
2021/05/04 06:18:41;;;;;;;3.80;2.10;;;11.50;92.20;;;;;;5030073;28;20037;-75
2021/05/04 06:21:07;;;;;;;5.28;1.88;;;11.40;92.00;;;;;;5028898;28;20471;-74
2021/05/04 06:23:33;;;;;;;3.92;2.00;;;11.40;92.20;;;;;;5030430;28;20026;-74
2021/05/04 06:26:00;;;;;;;5.03;1.80;;;11.40;92.10;;;;;;5032097;28;20041;-74
2021/05/04 06:28:25;;;;;;;3.13;1.57;;;11.50;92.00;;;;;;5028983;28;20110;-74
2021/05/04 06:30:52;;;;;;;5.05;1.77;;;11.40;92.20;;;;;;5029897;28;20029;-74
2021/05/04 06:33:17;;;;;;;2.90;1.75;;;11.40;92.30;;;;;;5029778;28;20464;-73
2021/05/04 06:35:44;;;;;;;3.95;1.83;;;11.50;92.50;;;;;;5029757;28;20053;-74
2021/05/04 06:38:15;;;;;;;7.22;2.47;;;11.50;92.70;;;;;;5031319;28;20638;-74
2021/05/04 06:40:42;;;;;;;3.45;2.10;;;11.50;92.70;;;;;;5030158;28;20137;-75
2021/05/04 06:43:09;;;;;;;7.32;2.60;;;11.50;92.60;;;;;;5029378;28;20046;-74
2021/05/04 06:45:35;;;;;;;6.20;2.17;;;11.50;92.80;;;;;;5029447;28;20124;-74
2021/05/04 06:48:01;;;;;;;7.80;3.72;;;11.50;92.60;;;;;;5029325;28;20116;-74
2021/05/04 06:50:27;;;;;;;7.03;2.70;;;11.40;92.50;;;;;;5028721;28;20354;-75
2021/05/04 06:52:53;;;;;;;5.13;2.28;;;11.50;92.50;;;;;;5030877;28;20024;-75
2021/05/04 06:55:20;;;;;;;5.53;3.00;;;11.40;92.40;;;;;;5028997;28;20072;-74
2021/05/04 06:57:46;;;;;;;6.97;3.25;;;11.40;92.50;;;;;;5028959;28;20482;-74
2021/05/04 07:00:13;;;;;;;4.40;2.67;;;11.40;92.40;;;;;;5029709;28;20264;-74
2021/05/04 07:02:39;;;;;;;4.73;1.80;;;11.40;92.50;;;;;;5029862;28;20030;-74
2021/05/04 07:05:06;;;;;;;5.63;1.70;;;11.40;92.30;;;;;;5031231;28;20044;-74
2021/05/04 07:07:32;;;;;;;2.72;1.83;;;11.40;92.20;;;;;;5028429;28;20037;-74
2021/05/04 07:09:58;;;;;;;4.00;1.70;;;11.40;92.30;;;;;;5029246;28;20044;-74
2021/05/04 07:12:24;;;;;;;2.40;1.33;;;11.40;92.50;;;;;;5029083;28;20053;-74
2021/05/04 07:14:49;;;;;;;4.82;1.40;;;11.40;92.80;;;;;;5028890;28;20091;-74
2021/05/04 07:17:15;;;;;;;5.55;1.80;;;11.50;92.90;;;;;;5030955;28;20029;-74
2021/05/04 07:19:41;;;;;;;1.77;1.38;;;11.50;93.00;;;;;;5029775;28;20420;-74
2021/05/04 07:22:09;;;;;;;7.35;1.73;;;11.50;93.00;;;;;;5029265;28;20033;-74
2021/05/04 07:24:35;;;;;;;1.90;1.30;;;11.50;93.10;;;;;;5029076;28;20045;-74
2021/05/04 07:27:01;;;;;;;5.22;1.58;;;11.50;93.00;;;;;;5029186;28;20057;-74
2021/05/04 07:29:27;;;;;;;4.28;2.75;;;11.60;92.80;;;;;;5028932;28;20079;-74
2021/05/04 07:31:53;;;;;;;2.35;1.65;;;11.50;92.80;;;;;;5030969;28;20092;-75
2021/05/04 07:34:18;;;;;;;3.20;2.05;;;11.60;92.80;;;;;;5029370;28;20125;-74
2021/05/04 07:36:44;;;;;;;2.35;1.27;;;11.70;92.80;;;;;;5029072;28;20371;-74
2021/05/04 07:39:09;;;;;;;5.50;1.50;;;11.80;92.30;;;;;;5031975;28;20025;-74
2021/05/04 07:41:35;;;;;;;2.83;1.65;;;11.70;92.10;;;;;;5034168;28;20037;-74
2021/05/04 07:44:02;;;;;;;3.15;1.63;;;11.80;92.20;;;;;;5037136;28;20105;-74
2021/05/04 07:46:28;;;;;;;3.20;1.17;;;11.70;92.20;;;;;;5035395;28;20056;-74
2021/05/04 07:48:55;;;;;;;3.67;1.48;;;11.70;92.00;;;;;;5035691;28;20483;-74
2021/05/04 07:51:21;;;;;;;3.25;1.67;;;11.70;92.00;;;;;;5034508;28;20467;-74
2021/05/04 07:53:47;;;;;;;1.73;1.30;;;11.70;91.80;;;;;;5035383;28;20068;-75
2021/05/04 07:56:12;;;;;;;5.72;1.33;;;11.70;91.80;;;;;;5036874;28;20079;-74
2021/05/04 07:58:38;;;;;;;7.10;1.48;;;11.80;91.80;;;;;;5035939;28;20034;-74
2021/05/04 08:01:04;;;;;;;1.83;1.10;;;11.80;92.10;;;;;;5035805;28;20495;-74
2021/05/04 08:03:30;;;;;;;3.78;1.33;;;11.80;92.20;;;;;;5035425;28;20033;-74
2021/05/04 08:05:56;;;;;;;3.75;1.58;;;11.80;92.50;;;;;;5035545;28;20537;-75
2021/05/04 08:08:21;;;;;;;4.10;1.33;;;11.80;92.60;;;;;;5035594;28;20112;-74
2021/05/04 08:10:47;;;;;;;2.33;1.40;;;11.80;92.60;;;;;;5037247;28;20158;-74
2021/05/04 08:13:14;;;;;;;2.30;1.58;;;11.80;92.50;;;;;;5035268;28;20455;-74
2021/05/04 08:15:40;;;;;;;2.67;1.27;;;11.80;92.50;;;;;;5034193;28;20471;-75
2021/05/04 08:18:10;;;;;;;3.40;1.50;;;11.80;92.70;;;;;;5033956;28;20045;-75
2021/05/04 08:20:43;;;;;;;2.67;1.58;;;11.80;93.30;;;;;;5033802;28;20052;-74
2021/05/04 08:23:09;;;;;;;2.30;1.67;;;11.80;93.10;;;;;;5035816;28;20032;-74
2021/05/04 08:25:35;;;;;;;1.58;1.33;;;11.80;93.30;;;;;;5034862;28;20041;-74
2021/05/04 08:28:00;;;;;;;3.72;1.48;;;11.70;93.30;;;;;;5034020;28;20391;-75
2021/05/04 08:30:27;;;;;;;2.97;1.60;;;11.60;93.30;;;;;;5035357;28;20040;-73
2021/05/04 08:32:53;;;;;;;4.13;1.60;;;11.60;93.40;;;;;;5035512;28;20363;-75
2021/05/04 08:35:19;;;;;;;1.45;1.27;;;11.70;93.50;;;;;;5035207;28;20475;-76
2021/05/04 08:37:44;;;;;;;8.27;1.50;;;11.80;93.40;;;;;;5035720;28;20120;-74
2021/05/04 08:40:12;;;;;;;1.65;1.30;;;12.10;93.00;;;;;;5035217;28;20036;-74
2021/05/04 08:42:37;;;;;;;1.85;1.40;;;12.10;92.90;;;;;;5034833;28;20034;-74
2021/05/04 08:45:04;;;;;;;1.75;1.20;;;12.10;92.90;;;;;;5034764;28;20049;-74
2021/05/04 08:47:31;;;;;;;1.40;1.20;;;12.10;92.90;;;;;;5035175;28;20018;-74
2021/05/04 08:49:57;;;;;;;2.55;1.30;;;12.10;92.80;;;;;;5033677;28;20034;-75
2021/05/04 08:52:23;;;;;;;6.50;1.23;;;12.10;92.60;;;;;;5032015;28;20478;-74
2021/05/04 08:54:48;;;;;;;1.48;1.00;;;12.10;92.50;;;;;;5032205;28;20283;-74
2021/05/04 08:57:14;;;;;;;2.45;1.10;;;12.00;92.60;;;;;;5032087;28;20550;-74
2021/05/04 08:59:40;;;;;;;1.83;1.35;;;11.90;92.60;;;;;;5031680;28;20034;-75
2021/05/04 09:02:06;;;;;;;2.28;1.30;;;12.00;92.70;;;;;;5033288;28;20113;-74
2021/05/04 09:04:43;;;;;;;2.05;1.38;;;11.90;92.60;;;;;;5031743;28;20049;-74
2021/05/04 09:07:30;;;;;;;2.77;1.30;;;11.90;92.80;;;;;;5031554;28;20037;-75
2021/05/04 09:10:09;;;;;;;2.90;1.10;;;11.90;92.60;;;;;;5032041;28;20131;-74
2021/05/04 09:13:02;;;;;;;1.17;1.00;;;11.90;92.60;;;;;;5031287;28;20481;-74
2021/05/04 09:15:35;;;;;;;5.63;1.20;;;12.00;92.50;;;;;;5030863;28;20038;-74
2021/05/04 09:18:07;;;;;;;2.72;1.20;;;12.10;92.20;;;;;;5031523;28;20029;-74
2021/05/04 09:20:50;;;;;;;1.73;1.13;;;12.10;92.00;;;;;;5030464;28;20467;-74
2021/05/04 09:23:15;;;;;;;2.05;0.98;;;12.20;91.80;;;;;;5030360;28;20043;-72
2021/05/04 09:25:41;;;;;;;2.08;1.15;;;12.10;91.70;;;;;;5033085;28;20444;-75
2021/05/04 09:28:10;;;;;;;3.08;1.05;;;12.20;91.60;;;;;;5031756;28;20123;-74
2021/05/04 09:30:39;;;;;;;1.77;1.17;;;12.20;91.40;;;;;;5029997;28;20033;-75
2021/05/04 09:33:13;;;;;;;5.25;0.90;;;12.30;91.40;;;;;;5031035;28;20052;-73
2021/05/04 09:35:39;;;;;;;4.57;1.45;;;12.30;91.20;;;;;;5031077;28;20060;-75
2021/05/04 09:38:09;;;;;;;3.55;1.10;;;12.20;91.30;;;;;;5032817;28;20034;-75
2021/05/04 09:40:37;;;;;;;2.13;1.40;;;12.30;91.40;;;;;;5031161;28;20056;-74
2021/05/04 09:43:24;;;;;;;5.00;1.50;;;12.40;91.30;;;;;;5031259;28;20539;-75
2021/05/04 09:45:58;;;;;;;10.98;1.98;;;12.50;91.40;;;;;;5031073;28;20391;-74
2021/05/04 09:48:32;;;;;;;2.25;1.27;;;12.70;91.20;;;;;;5031019;28;20049;-75
2021/05/04 09:51:05;;;;;;;2.03;1.55;;;12.80;90.90;;;;;;5030677;28;20029;-74
2021/05/04 09:56:36;;;;;;;2.95;1.27;;;12.90;90.50;;;;;;5021576;28;20049;-74
2021/05/04 09:59:03;;;;;;;4.93;1.00;;;12.90;90.50;;;;;;5032579;28;20021;-73
2021/05/04 10:01:29;;;;;;;5.50;1.00;;;13.00;90.40;;;;;;5030492;28;20107;-75
2021/05/04 10:03:57;;;;;;;1.17;0.80;;;13.10;90.40;;;;;;5029588;28;20079;-74
2021/05/04 10:06:23;;;;;;;3.45;0.90;;;13.10;90.10;;;;;;5030545;28;20029;-75
2021/05/04 10:08:50;;;;;;;5.28;1.00;;;13.10;90.00;;;;;;5030595;28;20045;-75
2021/05/04 10:11:18;;;;;;;2.83;1.13;;;13.10;89.80;;;;;;5029638;28;20351;-73
2021/05/04 10:13:47;;;;;;;4.30;0.77;;;13.10;89.70;;;;;;5032138;28;20110;-74
2021/05/04 10:16:13;;;;;;;3.03;0.70;;;13.10;89.40;;;;;;5030342;28;20045;-75
2021/05/04 10:18:38;;;;;;;0.85;0.60;;;13.20;89.10;;;;;;5030421;28;20064;-74
2021/05/04 10:21:07;;;;;;;1.80;1.15;;;13.20;88.80;;;;;;5030367;28;20033;-76
2021/05/04 10:23:33;;;;;;;;;;;13.20;88.80;;;;;;5030968;28;20026;-75
2021/05/04 10:26:11;;;;;;;2.28;0.50;;;13.20;88.20;;;;;;5032211;28;19927;-74
2021/05/04 10:28:39;;;;;;;1.33;0.52;;;13.30;88.20;;;;;;5029931;28;20195;-74
2021/05/04 10:31:06;;;;;;;1.02;0.55;;;13.40;88.30;;;;;;5029883;28;20044;-74
2021/05/04 10:33:39;;;;;;;4.53;0.70;;;13.60;88.10;;;;;;5029963;28;20095;-74
2021/05/04 10:36:25;;;;;;;2.20;0.60;;;13.70;87.10;;;;;;5029821;28;20128;-74
2021/05/04 10:38:53;;;;;;;2.10;0.80;;;13.70;86.80;;;;;;5029693;28;20075;-74
2021/05/04 10:41:18;;;;;;;0.70;0.55;;;13.70;86.60;;;;;;5029439;28;20141;-73
2021/05/04 10:43:44;;;;;;;1.70;0.52;;;13.90;86.20;;;;;;5031241;28;20828;-75
2021/05/04 10:46:34;;;;;;;9.10;1.02;;;13.80;86.50;;;;;;5029580;28;20345;-74
2021/05/04 10:49:00;;;;;;;3.47;0.70;;;13.70;87.20;;;;;;5029421;28;20042;-73
2021/05/04 10:51:48;;;;;;;2.35;0.63;;;13.80;87.10;;;;;;5029564;28;20067;-74
2021/05/04 10:54:16;;;;;;;2.47;0.93;;;13.70;86.70;;;;;;5028212;28;20175;-74
2021/05/04 10:56:46;;;;;;;;;;;13.80;86.10;;;;;;5028598;28;20095;-73
2021/05/04 10:59:24;;;;;;;5.72;0.93;;;13.90;85.30;;;;;;5031205;28;19909;-74
2021/05/04 11:02:08;;;;;;;;;;;13.90;84.80;;;;;;5029225;28;20037;-74
2021/05/04 11:04:45;;;;;;;2.17;0.55;;;13.90;84.00;;;;;;5029654;28;19996;-76
2021/05/04 11:07:11;;;;;;;1.05;0.63;;;14.00;84.00;;;;;;5029441;28;20041;-74
2021/05/04 11:09:40;;;;;;;1.50;0.70;;;14.00;83.50;;;;;;5028914;28;20136;-75
2021/05/04 11:12:07;;;;;;;1.30;0.60;;;14.10;83.40;;;;;;5028794;28;20034;-73
2021/05/04 11:14:36;;;;;;;4.35;0.75;;;14.10;83.10;;;;;;5028373;28;20101;-74
2021/05/04 11:17:13;;;;;;;1.20;0.60;;;14.10;82.80;;;;;;5030673;28;20032;-73
2021/05/04 11:19:41;;;;;;;1.88;0.80;;;14.10;82.60;;;;;;5029186;28;20055;-73
2021/05/04 11:22:11;;;;;;;4.65;0.50;;;14.20;82.70;;;;;;5029136;28;20030;-73
2021/05/04 11:24:40;;;;;;;1.67;0.80;;;14.20;82.20;;;;;;5029106;28;20048;-74
2021/05/04 11:27:06;;;;;;;3.72;0.70;;;14.20;82.10;;;;;;5028886;28;20041;-74
2021/05/04 11:29:31;;;;;;;3.67;0.70;;;14.20;82.40;;;;;;5028535;28;20049;-73
2021/05/04 11:32:17;;;;;;;0.80;0.50;;;14.20;83.30;;;;;;5030358;28;20406;-74
2021/05/04 11:34:52;;;;;;;2.83;0.70;;;14.10;86.80;;;;;;5028981;28;20048;-75
2021/05/04 11:37:21;;;;;;;0.63;0.45;;;13.90;90.30;;;;;;5028670;28;20503;-74
2021/05/04 11:39:49;;;;;;;5.20;0.60;;;13.90;90.80;;;;;;5028296;28;20041;-74
2021/05/04 11:42:15;;;;;;;2.88;0.50;;;13.90;91.40;;;;;;5028667;28;20041;-74
2021/05/04 11:44:40;;;;;;;2.20;0.55;;;14.00;91.70;;;;;;5029079;28;20037;-74
2021/05/04 11:47:22;;;;;;;3.60;0.70;;;14.10;91.80;;;;;;5030592;28;20014;-74
2021/05/04 11:49:48;;;;;;;1.73;0.50;;;14.30;91.70;;;;;;5029285;28;20025;-74
2021/05/04 11:52:18;;;;;;;2.17;0.80;;;14.30;91.20;;;;;;5028779;28;20038;-73
2021/05/04 11:54:47;;;;;;;1.83;0.70;;;14.30;91.20;;;;;;5028447;28;20045;-74
2021/05/04 11:57:13;;;;;;;0.40;0.38;;;14.40;90.20;;;;;;5029172;28;20030;-73
2021/05/04 11:59:39;;;;;;;3.75;1.17;;;14.50;90.10;;;;;;5028738;28;20471;-73
2021/05/04 12:02:05;;;;;;;1.00;0.52;;;14.60;89.50;;;;;;5030148;28;20108;-74
2021/05/04 12:04:50;;;;;;;2.42;0.68;;;14.60;89.00;;;;;;5027459;28;20047;-74
2021/05/04 12:07:39;;;;;;;0.80;0.60;;;14.50;88.10;;;;;;5028816;28;20080;-74
2021/05/04 12:10:20;;;;;;;0.77;0.43;;;14.60;88.00;;;;;;5027686;28;20716;-74
2021/05/04 12:13:10;;;;;;;2.08;0.50;;;14.60;88.40;;;;;;5028669;28;20482;-74
2021/05/04 12:15:43;;;;;;;4.20;0.63;;;14.50;87.50;;;;;;5027890;28;20136;-74
2021/05/04 12:18:15;;;;;;;1.42;0.60;;;14.30;85.90;;;;;;5028641;28;20033;-74
2021/05/04 12:21:02;;;;;;;2.22;0.57;;;14.40;87.00;;;;;;5027515;28;20052;-75
2021/05/04 12:23:35;;;;;;;0.77;0.40;;;14.30;87.40;;;;;;5028717;28;20022;-75
2021/05/04 12:26:33;;;;;;;2.50;0.60;;;14.30;87.10;;;;;;5030905;28;20045;-74
2021/05/04 12:28:58;;;;;;;;;;;14.10;87.20;;;;;;5027650;28;20057;-73
2021/05/04 12:31:32;;;;;;;1.60;0.60;;;14.10;89.20;;;;;;5032448;28;20003;-74
2021/05/04 12:33:58;;;;;;;2.20;0.73;;;13.90;90.20;;;;;;5032065;28;20140;-75
2021/05/04 12:36:51;;;;;;;2.80;0.80;;;13.80;91.00;;;;;;5031009;28;20383;-74
2021/05/04 12:39:25;;;;;;;1.95;0.70;;;13.70;91.40;;;;;;5031435;28;20459;-75
2021/05/04 12:41:52;;;;;;;2.45;0.70;;;13.60;91.80;;;;;;5032336;28;20094;-74
2021/05/04 12:44:25;;;;;;;2.55;1.13;;;13.50;92.60;;;;;;5031711;28;20026;-74
2021/05/04 12:46:56;;;;;;;2.15;0.82;;;13.50;93.10;;;;;;5032233;28;20041;-74
2021/05/04 12:49:39;;;;;;;2.88;1.00;;;13.50;93.00;;;;;;5031836;28;20037;-73
2021/05/04 12:52:09;;;;;;;1.60;0.77;;;13.40;93.00;;;;;;5031743;28;20057;-74
2021/05/04 12:54:37;;;;;;;1.23;0.75;;;13.50;93.20;;;;;;5030218;28;20033;-74